createdAt,value
2022-08-03T00:02:19.815Z,2.25
2022-08-03T00:04:47.673Z,2.88
2022-08-03T00:07:15.141Z,2.20
2022-08-03T00:09:42.308Z,2.60
2022-08-03T00:12:09.593Z,2.10
2022-08-03T00:14:36.482Z,2.20
2022-08-03T00:17:03.833Z,2.90
2022-08-03T00:19:30.971Z,2.50
2022-08-03T00:21:57.843Z,2.20
2022-08-03T00:24:24.942Z,2.65
2022-08-03T00:26:52.279Z,2.83
2022-08-03T00:29:19.300Z,2.00
2022-08-03T00:31:52.593Z,2.20
2022-08-03T00:34:36.268Z,1.98
2022-08-03T00:37:10.939Z,2.53
2022-08-03T00:39:37.877Z,2.20
2022-08-03T00:42:06.054Z,1.95
2022-08-03T00:44:43.502Z,2.40
2022-08-03T00:47:11.577Z,2.70
2022-08-03T00:49:41.330Z,2.33
2022-08-03T00:52:15.378Z,2.40
2022-08-03T00:54:42.764Z,2.50
2022-08-03T00:57:10.035Z,3.10
2022-08-03T00:59:38.470Z,2.80
2022-08-03T01:02:06.493Z,2.80
2022-08-03T01:04:33.614Z,2.30
2022-08-03T01:07:19.767Z,2.38
2022-08-03T01:10:10.291Z,2.35
2022-08-03T01:14:01.210Z,2.42
2022-08-03T01:16:48.961Z,2.30
2022-08-03T01:19:41.804Z,3.35
2022-08-03T01:22:37.135Z,2.50
2022-08-03T01:25:54.241Z,2.28
2022-08-03T01:29:01.656Z,2.78
2022-08-03T01:32:54.498Z,2.30
2022-08-03T01:35:14.445Z,2.42
2022-08-03T01:37:51.328Z,2.30
2022-08-03T01:40:22.123Z,2.42
2022-08-03T01:42:51.713Z,2.60
2022-08-03T01:45:21.751Z,2.50
2022-08-03T01:47:51.485Z,2.97
2022-08-03T01:50:24.958Z,2.80
2022-08-03T01:52:54.715Z,3.72
2022-08-03T01:55:25.067Z,2.85
2022-08-03T01:58:05.489Z,2.63
2022-08-03T02:00:37.640Z,2.08
2022-08-03T02:03:10.194Z,2.50
2022-08-03T02:05:40.142Z,2.80
2022-08-03T02:08:12.967Z,2.30
2022-08-03T02:10:43.507Z,2.60
2022-08-03T02:13:11.305Z,2.55
2022-08-03T02:15:39.937Z,2.60
2022-08-03T02:18:11.107Z,2.60
2022-08-03T02:20:41.933Z,2.33
2022-08-03T02:23:09.942Z,2.65
2022-08-03T02:25:47.115Z,2.70
2022-08-03T02:28:21.309Z,2.70
2022-08-03T02:30:55.193Z,2.50
2022-08-03T02:33:38.343Z,2.78
2022-08-03T02:36:07.963Z,3.15
2022-08-03T02:38:42.684Z,2.83
2022-08-03T02:41:21.151Z,2.65
2022-08-03T02:44:06.403Z,2.40
2022-08-03T02:46:38.899Z,2.55
2022-08-03T02:49:40.571Z,2.70
2022-08-03T02:51:58.943Z,2.55
2022-08-03T02:54:28.207Z,2.58
2022-08-03T02:56:58.920Z,2.67
2022-08-03T02:59:31.300Z,2.90
2022-08-03T03:02:02.327Z,2.65
2022-08-03T03:04:33.183Z,2.50
2022-08-03T03:07:01.779Z,2.50
2022-08-03T03:09:40.344Z,2.80
2022-08-03T03:12:12.667Z,2.60
2022-08-03T03:14:40.219Z,2.70
2022-08-03T03:17:10.463Z,2.53
2022-08-03T03:19:41.450Z,2.70
2022-08-03T03:22:10.058Z,2.60
2022-08-03T03:24:39.894Z,2.60
2022-08-03T03:27:08.844Z,2.28
2022-08-03T03:29:39.374Z,2.65
2022-08-03T03:32:08.458Z,3.00
2022-08-03T03:34:37.574Z,2.40
2022-08-03T03:37:05.341Z,2.70
2022-08-03T03:39:32.489Z,2.80
2022-08-03T03:42:01.169Z,2.80
2022-08-03T03:44:30.287Z,2.28
2022-08-03T03:47:00.193Z,3.10
2022-08-03T03:49:27.649Z,2.95
2022-08-03T03:51:55.761Z,2.38
2022-08-03T03:54:25.539Z,2.83
2022-08-03T03:56:56.732Z,2.63
2022-08-03T03:59:23.589Z,2.30
2022-08-03T04:01:58.869Z,2.80
2022-08-03T04:04:44.921Z,2.63
2022-08-03T04:07:30.424Z,2.55
2022-08-03T04:10:16.500Z,2.60
2022-08-03T04:12:49.960Z,2.33
2022-08-03T04:15:24.398Z,2.97
2022-08-03T04:17:58.027Z,2.47
2022-08-03T04:20:32.716Z,2.50
2022-08-03T04:23:02.893Z,2.60
2022-08-03T04:25:42.901Z,2.80
2022-08-03T04:28:30.451Z,3.13
2022-08-03T04:31:07.542Z,2.97
2022-08-03T04:33:38.909Z,2.85
2022-08-03T04:36:10.905Z,2.85
2022-08-03T04:38:54.403Z,3.10
2022-08-03T04:41:25.714Z,2.55
2022-08-03T04:43:57.383Z,2.85
2022-08-03T04:46:31.067Z,3.00
2022-08-03T04:48:59.905Z,2.70
2022-08-03T04:51:27.928Z,2.70
2022-08-03T04:53:54.793Z,2.63
2022-08-03T04:56:22.085Z,2.50
2022-08-03T04:58:49.327Z,3.13
2022-08-03T05:01:16.884Z,3.63
2022-08-03T05:03:43.748Z,2.95
2022-08-03T05:06:11.325Z,2.97
2022-08-03T05:08:46.087Z,3.58
2022-08-03T05:11:16.401Z,3.08
2022-08-03T05:13:45.192Z,2.67
2022-08-03T05:16:13.971Z,3.55
2022-08-03T05:18:43.091Z,3.40
2022-08-03T05:21:10.934Z,3.33
2022-08-03T05:23:38.148Z,3.33
2022-08-03T05:26:05.435Z,3.35
2022-08-03T05:28:32.283Z,4.03
2022-08-03T05:30:59.132Z,3.75
2022-08-03T05:33:26.211Z,2.92
2022-08-03T05:35:56.157Z,2.85
2022-08-03T05:38:34.280Z,2.67
2022-08-03T05:41:21.021Z,2.60
2022-08-03T05:43:53.968Z,2.78
2022-08-03T05:46:23.859Z,2.72
2022-08-03T05:48:52.145Z,2.83
2022-08-03T05:51:19.596Z,2.60
2022-08-03T05:53:46.536Z,2.70
2022-08-03T05:56:16.296Z,2.80
2022-08-03T05:58:47.745Z,3.00
2022-08-03T06:01:17.219Z,2.80
2022-08-03T06:03:46.307Z,2.58
2022-08-03T06:06:13.820Z,2.97
2022-08-03T06:08:42.996Z,2.40
2022-08-03T06:11:10.408Z,2.75
2022-08-03T06:13:38.120Z,2.60
2022-08-03T06:16:05.542Z,2.90
2022-08-03T06:18:32.778Z,2.60
2022-08-03T06:21:09.507Z,3.15
2022-08-03T06:23:53.851Z,3.08
2022-08-03T06:26:28.159Z,2.70
2022-08-03T06:28:55.939Z,2.58
2022-08-03T06:31:33.226Z,2.80
2022-08-03T06:34:34.393Z,2.90
2022-08-03T06:36:52.173Z,2.55
2022-08-03T06:39:19.810Z,2.88
2022-08-03T06:41:46.658Z,2.60
2022-08-03T06:44:14.296Z,2.33
2022-08-03T06:46:44.134Z,2.40
2022-08-03T06:49:11.059Z,3.05
2022-08-03T06:52:37.069Z,3.15
2022-08-03T06:54:25.250Z,2.22
2022-08-03T06:56:52.194Z,2.42
2022-08-03T07:00:07.393Z,2.20
2022-08-03T07:02:06.133Z,2.60
2022-08-03T07:04:33.433Z,2.83
2022-08-03T07:07:00.410Z,2.42
2022-08-03T07:09:28.152Z,2.83
2022-08-03T07:11:55.483Z,3.28
2022-08-03T07:14:22.637Z,2.92
2022-08-03T07:16:49.969Z,2.50
2022-08-03T07:19:17.312Z,2.88
2022-08-03T07:21:45.434Z,2.45
2022-08-03T07:24:12.541Z,2.70
2022-08-03T07:26:39.667Z,2.70
2022-08-03T07:29:11.751Z,2.10
2022-08-03T07:31:42.900Z,2.60
2022-08-03T07:34:09.884Z,2.58
2022-08-03T07:36:37.000Z,2.40
2022-08-03T07:39:16.695Z,1.85
2022-08-03T07:41:46.196Z,2.20
2022-08-03T07:44:14.639Z,2.88
2022-08-03T07:46:43.038Z,2.70
2022-08-03T07:49:12.825Z,2.85
2022-08-03T07:51:40.838Z,2.65
2022-08-03T07:54:10.322Z,2.42
2022-08-03T07:56:37.973Z,2.88
2022-08-03T07:59:05.137Z,2.30
2022-08-03T08:01:34.181Z,2.50
2022-08-03T08:04:01.115Z,2.40
2022-08-03T08:06:28.309Z,2.50
2022-08-03T08:08:59.684Z,2.97
2022-08-03T08:11:26.892Z,2.20
2022-08-03T08:13:54.200Z,2.17
2022-08-03T08:16:21.450Z,2.33
2022-08-03T08:18:48.556Z,2.10
2022-08-03T08:21:15.695Z,2.40
2022-08-03T08:23:48.052Z,2.42
2022-08-03T08:26:24.629Z,2.20
2022-08-03T08:28:52.842Z,2.15
2022-08-03T08:31:19.899Z,2.28
2022-08-03T08:34:03.926Z,2.33
2022-08-03T08:36:35.709Z,2.03
2022-08-03T08:39:03.734Z,2.00
2022-08-03T08:41:33.832Z,2.10
2022-08-03T08:44:04.686Z,2.17
2022-08-03T08:46:34.618Z,2.70
2022-08-03T08:49:04.673Z,2.25
2022-08-03T08:51:59.827Z,1.77
2022-08-03T08:54:29.894Z,2.17
2022-08-03T08:57:02.725Z,2.03
2022-08-03T08:59:48.774Z,2.10
2022-08-03T09:02:17.090Z,2.53
2022-08-03T09:04:48.967Z,1.73
2022-08-03T09:07:20.711Z,2.47
2022-08-03T09:10:07.586Z,2.30
2022-08-03T09:12:46.112Z,2.13
2022-08-03T09:15:25.483Z,2.50
2022-08-03T09:17:56.409Z,3.15
2022-08-03T09:20:28.007Z,2.35
2022-08-03T09:23:26.248Z,2.30
2022-08-03T09:25:59.833Z,2.38
2022-08-03T09:29:01.143Z,2.00
2022-08-03T09:31:43.154Z,1.98
2022-08-03T09:34:17.143Z,1.92
2022-08-03T09:36:50.846Z,2.10
2022-08-03T09:39:40.796Z,1.73
2022-08-03T09:42:18.279Z,1.90
2022-08-03T09:44:48.015Z,1.75
2022-08-03T09:47:31.056Z,2.17
2022-08-03T09:50:08.954Z,2.40
2022-08-03T09:52:52.032Z,2.00
2022-08-03T09:56:34.645Z,2.25
2022-08-03T09:58:14.302Z,1.80
2022-08-03T10:00:56.111Z,2.00
2022-08-03T10:03:25.746Z,1.90
2022-08-03T10:05:57.473Z,1.90
2022-08-03T10:08:26.755Z,1.70
2022-08-03T10:10:58.762Z,2.22
2022-08-03T10:13:25.924Z,1.92
2022-08-03T10:16:24.145Z,2.00
2022-08-03T10:18:40.070Z,1.75
2022-08-03T10:21:12.654Z,1.75
2022-08-03T10:23:41.959Z,2.03
2022-08-03T10:26:16.287Z,1.80
2022-08-03T10:28:50.348Z,1.75
2022-08-03T10:31:22.309Z,1.88
2022-08-03T10:33:53.283Z,1.88
2022-08-03T10:36:24.823Z,2.08
2022-08-03T10:38:53.860Z,2.10
2022-08-03T10:41:32.459Z,1.63
2022-08-03T10:44:15.793Z,1.83
2022-08-03T10:46:45.504Z,2.10
2022-08-03T10:49:34.355Z,1.90
2022-08-03T10:52:11.359Z,1.65
2022-08-03T10:55:11.082Z,2.00
2022-08-03T10:57:58.120Z,1.65
2022-08-03T11:00:28.512Z,2.00
2022-08-03T11:03:11.471Z,1.90
2022-08-03T11:05:44.610Z,2.00
2022-08-03T11:08:31.815Z,2.28
2022-08-03T11:11:02.974Z,2.38
2022-08-03T11:13:33.554Z,1.98
2022-08-03T11:16:21.504Z,1.70
2022-08-03T11:19:02.757Z,1.65
2022-08-03T11:21:49.506Z,2.10
2022-08-03T11:25:07.668Z,1.77
2022-08-03T11:27:36.062Z,1.67
2022-08-03T11:30:27.654Z,1.90
2022-08-03T11:32:58.801Z,1.60
2022-08-03T11:35:35.847Z,1.80
2022-08-03T11:38:09.032Z,1.92
2022-08-03T11:40:42.146Z,2.10
2022-08-03T11:43:31.304Z,1.90
2022-08-03T11:46:00.051Z,1.90
2022-08-03T11:48:43.566Z,2.47
2022-08-03T11:51:26.607Z,1.67
2022-08-03T11:54:06.642Z,2.03
2022-08-03T11:56:50.685Z,1.50
2022-08-03T11:59:21.557Z,1.65
2022-08-03T12:01:50.838Z,1.70
2022-08-03T12:04:17.780Z,1.92
2022-08-03T12:07:00.451Z,1.52
2022-08-03T12:09:27.557Z,1.77
2022-08-03T12:12:00.168Z,3.25
2022-08-03T12:14:49.909Z,2.00
2022-08-03T12:17:19.055Z,2.00
2022-08-03T12:19:46.364Z,1.77
2022-08-03T12:22:13.723Z,2.05
2022-08-03T12:24:43.233Z,1.90
2022-08-03T12:27:10.298Z,1.60
2022-08-03T12:29:37.514Z,2.40
2022-08-03T12:32:05.120Z,2.10
2022-08-03T12:34:49.630Z,1.98
2022-08-03T12:37:23.362Z,2.28
2022-08-03T12:40:02.329Z,2.30
2022-08-03T12:42:34.668Z,1.98
2022-08-03T12:45:26.655Z,1.80
2022-08-03T12:48:02.171Z,2.08
2022-08-03T12:50:35.307Z,2.03
2022-08-03T12:53:07.864Z,1.60
2022-08-03T12:55:56.268Z,2.17
2022-08-03T12:58:38.863Z,1.70
2022-08-03T13:01:09.710Z,2.22
2022-08-03T13:03:50.300Z,2.35
2022-08-03T13:06:26.864Z,2.30
2022-08-03T13:09:07.994Z,2.28
2022-08-03T13:11:55.781Z,1.90
2022-08-03T13:14:23.668Z,2.00
2022-08-03T13:16:51.172Z,1.77
2022-08-03T13:19:18.095Z,2.30
2022-08-03T13:21:53.849Z,2.20
2022-08-03T13:24:33.108Z,1.85
2022-08-03T13:28:01.463Z,2.22
2022-08-03T13:29:47.979Z,1.90
2022-08-03T13:32:15.042Z,2.42
2022-08-03T13:34:42.446Z,1.85
2022-08-03T13:37:10.210Z,2.00
2022-08-03T13:39:57.578Z,2.00
2022-08-03T13:42:26.426Z,2.10
2022-08-03T13:44:53.819Z,2.00
2022-08-03T13:47:21.130Z,1.90
2022-08-03T13:49:54.335Z,2.20
2022-08-03T13:52:35.227Z,1.70
2022-08-03T13:55:06.339Z,1.60
2022-08-03T13:58:02.398Z,2.10
2022-08-03T14:00:27.946Z,1.80
2022-08-03T14:03:05.234Z,1.77
2022-08-03T14:05:38.287Z,1.70
2022-08-03T14:08:07.332Z,1.83
2022-08-03T14:10:41.260Z,1.90
2022-08-03T14:13:09.095Z,1.73
2022-08-03T14:15:37.856Z,1.63
2022-08-03T14:18:12.898Z,1.90
2022-08-03T14:20:50.287Z,1.73
2022-08-03T14:23:21.579Z,1.98
2022-08-03T14:25:51.672Z,1.60
2022-08-03T14:28:23.300Z,2.40
2022-08-03T14:30:52.447Z,2.38
2022-08-03T14:33:20.271Z,1.90
2022-08-03T14:35:48.329Z,1.73
2022-08-03T14:38:16.360Z,2.10
2022-08-03T14:40:43.829Z,1.80
2022-08-03T14:43:10.862Z,1.70
2022-08-03T14:45:42.082Z,1.80
2022-08-03T14:50:34.817Z,1.75
2022-08-03T14:50:56.889Z,2.00
2022-08-03T14:53:24.925Z,6.05
2022-08-03T14:55:53.542Z,3.70
2022-08-03T14:58:22.801Z,1.83
2022-08-03T15:00:52.788Z,1.50
2022-08-03T15:03:23.678Z,1.73
2022-08-03T15:05:57.466Z,1.45
2022-08-03T15:08:26.647Z,1.90
2022-08-03T15:10:55.086Z,1.80
2022-08-03T15:13:22.988Z,2.25
2022-08-03T15:15:50.045Z,1.90
2022-08-03T15:18:17.515Z,1.70
2022-08-03T15:20:46.254Z,2.35
2022-08-03T15:23:16.006Z,1.92
2022-08-03T15:26:03.907Z,2.08
2022-08-03T15:28:34.438Z,2.03
2022-08-03T15:31:05.954Z,1.80
2022-08-03T15:33:33.156Z,1.60
2022-08-03T15:36:02.254Z,1.98
2022-08-03T15:38:29.556Z,1.80
2022-08-03T15:40:56.972Z,1.50
2022-08-03T15:43:24.400Z,1.70
2022-08-03T15:46:19.469Z,2.08
2022-08-03T15:48:40.996Z,1.85
2022-08-03T15:51:10.417Z,1.70
2022-08-03T15:53:38.571Z,1.52
2022-08-03T15:56:11.359Z,1.38
2022-08-03T15:59:09.886Z,1.80
2022-08-03T16:01:28.595Z,2.00
2022-08-03T16:03:55.806Z,1.77
2022-08-03T16:06:35.405Z,1.95
2022-08-03T16:09:23.494Z,2.78
2022-08-03T16:11:55.856Z,2.90
2022-08-03T16:14:34.407Z,1.73
2022-08-03T16:17:05.485Z,1.70
2022-08-03T16:19:32.905Z,1.50
2022-08-03T16:22:00.445Z,1.70
2022-08-03T16:24:28.308Z,2.00
2022-08-03T16:26:56.735Z,1.80
2022-08-03T16:29:24.216Z,1.83
2022-08-03T16:46:30.082Z,1.83
2022-08-03T16:48:59.324Z,1.80
2022-08-03T16:51:26.198Z,2.30
2022-08-03T16:54:12.461Z,2.15
2022-08-03T16:56:41.698Z,2.33
2022-08-03T16:59:08.785Z,1.80
2022-08-03T17:01:37.954Z,2.50
2022-08-03T17:04:06.329Z,2.38
2022-08-03T17:06:45.156Z,4.07
2022-08-03T17:09:18.143Z,7.72
2022-08-03T17:11:48.382Z,3.15
2022-08-03T17:14:22.879Z,2.28
2022-08-03T17:17:01.603Z,2.70
2022-08-03T17:19:32.562Z,2.15
2022-08-03T17:22:04.905Z,2.63
2022-08-03T17:24:41.414Z,2.03
2022-08-03T17:27:18.613Z,2.80
2022-08-03T17:30:10.689Z,2.20
2022-08-03T17:32:56.603Z,2.05
2022-08-03T17:35:24.723Z,3.28
2022-08-03T17:38:06.712Z,2.50
2022-08-03T17:40:38.050Z,2.47
2022-08-03T17:45:54.740Z,3.45
2022-08-03T17:48:25.142Z,2.70
2022-08-03T17:51:00.493Z,1.80
2022-08-03T17:53:37.366Z,2.17
2022-08-03T17:56:44.940Z,1.80
2022-08-03T17:59:44.361Z,2.70
2022-08-03T18:03:10.442Z,2.17
2022-08-03T18:06:11.195Z,2.58
2022-08-03T18:08:36.461Z,2.90
2022-08-03T18:11:15.236Z,2.90
2022-08-03T18:13:58.151Z,2.20
2022-08-03T18:16:37.700Z,3.05
2022-08-03T18:19:09.718Z,3.00
2022-08-03T18:22:03.211Z,3.55
2022-08-03T18:24:31.077Z,3.08
2022-08-03T18:27:03.434Z,3.28
2022-08-03T18:29:31.678Z,3.25
2022-08-03T18:32:03.745Z,2.53
2022-08-03T18:34:34.907Z,2.58
2022-08-03T18:37:04.311Z,3.15
2022-08-03T18:39:39.043Z,3.10
2022-08-03T18:42:20.088Z,3.08
2022-08-03T18:44:56.150Z,2.95
2022-08-03T18:48:05.149Z,3.33
2022-08-03T18:50:50.141Z,2.50
2022-08-03T18:53:21.181Z,3.20
2022-08-03T18:56:26.372Z,3.13
2022-08-03T18:59:30.184Z,3.88
2022-08-03T19:02:06.552Z,3.28
2022-08-03T19:04:47.483Z,3.35
2022-08-03T19:07:24.050Z,4.15
2022-08-03T19:10:10.045Z,3.92
2022-08-03T19:13:11.348Z,3.90
2022-08-03T19:15:51.651Z,4.35
2022-08-03T19:18:21.972Z,3.70
2022-08-03T19:20:54.642Z,3.60
2022-08-03T19:23:25.855Z,3.42
2022-08-03T19:25:54.209Z,3.00
2022-08-03T19:28:30.000Z,3.58
2022-08-03T19:31:02.823Z,3.30
2022-08-03T19:33:57.506Z,3.50
2022-08-03T19:36:39.576Z,3.80
2022-08-03T19:39:12.684Z,3.72
2022-08-03T19:41:47.294Z,3.65
2022-08-03T19:44:29.795Z,3.00
2022-08-03T19:47:22.300Z,3.55
2022-08-03T19:50:05.651Z,3.78
2022-08-03T19:52:40.307Z,2.88
2022-08-03T19:55:12.485Z,2.50
2022-08-03T19:57:46.340Z,2.97
2022-08-03T20:00:19.973Z,2.40
2022-08-03T20:02:53.905Z,2.72
2022-08-03T20:05:20.913Z,3.03
2022-08-03T20:07:50.550Z,2.40
2022-08-03T20:10:21.492Z,2.70
2022-08-03T20:12:49.860Z,2.33
2022-08-03T20:15:22.195Z,2.20
2022-08-03T20:17:58.830Z,2.50
2022-08-03T20:20:34.253Z,2.58
2022-08-03T20:23:11.276Z,3.05
2022-08-03T20:25:58.182Z,2.70
2022-08-03T20:28:56.240Z,2.70
2022-08-03T20:31:32.371Z,2.58
2022-08-03T20:34:04.072Z,2.58
2022-08-03T20:36:31.096Z,2.63
2022-08-03T20:38:58.455Z,2.47
2022-08-03T20:41:27.280Z,2.45
2022-08-03T20:43:54.639Z,2.55
2022-08-03T20:46:29.201Z,2.80
2022-08-03T20:49:04.009Z,2.80
2022-08-03T20:51:49.946Z,3.35
2022-08-03T20:54:30.906Z,4.03
2022-08-03T20:57:04.326Z,4.05
2022-08-03T20:59:50.860Z,4.15
2022-08-03T21:02:29.505Z,3.83
2022-08-03T21:05:08.675Z,3.95
2022-08-03T21:08:06.117Z,3.85
2022-08-03T21:10:39.823Z,4.10
2022-08-03T21:13:04.791Z,1.92
2022-08-03T21:13:32.291Z,3.85
2022-08-03T21:16:13.136Z,4.22
2022-08-03T21:18:52.823Z,4.63
2022-08-03T21:21:23.642Z,8.98
2022-08-03T21:23:54.268Z,5.57
2022-08-03T21:26:26.175Z,4.82
2022-08-03T21:28:56.081Z,3.92
2022-08-03T21:31:26.427Z,3.78
2022-08-03T21:34:05.574Z,3.78
2022-08-03T21:36:36.019Z,4.22
2022-08-03T21:39:08.217Z,4.25
2022-08-03T21:41:38.044Z,4.00
2022-08-03T21:44:07.092Z,4.82
2022-08-03T21:46:42.403Z,4.93
2022-08-03T21:50:07.566Z,4.72
2022-08-03T21:52:07.111Z,4.35
2022-08-03T21:54:42.248Z,4.53
2022-08-03T21:57:22.327Z,4.30
2022-08-03T22:00:06.501Z,4.57
2022-08-03T22:02:39.186Z,4.20
2022-08-03T22:05:10.049Z,4.90
2022-08-03T22:07:44.353Z,4.38
2022-08-03T22:10:13.076Z,5.03
2022-08-03T22:12:40.961Z,4.40
2022-08-03T22:15:13.189Z,4.50
2022-08-03T22:17:55.486Z,4.38
2022-08-03T22:20:26.015Z,3.78
2022-08-03T22:22:59.926Z,4.05
2022-08-03T22:25:34.726Z,4.30
2022-08-03T22:28:09.112Z,3.90
2022-08-03T22:30:37.080Z,4.10
2022-08-03T22:33:11.112Z,3.40
2022-08-03T22:35:48.592Z,3.00
2022-08-03T22:38:18.048Z,3.30
2022-08-03T22:40:48.800Z,3.00
2022-08-03T22:43:16.620Z,3.75
2022-08-03T22:46:10.064Z,3.78
2022-08-03T22:48:41.215Z,3.10
2022-08-03T22:51:09.853Z,3.20
2022-08-03T22:53:38.316Z,2.60
2022-08-03T22:56:06.516Z,3.70
2022-08-03T22:58:33.572Z,2.78
2022-08-03T23:01:26.188Z,2.80
2022-08-03T23:04:02.886Z,2.88
2022-08-03T23:06:41.550Z,2.78
2022-08-03T23:09:12.577Z,2.92
2022-08-03T23:11:46.118Z,2.78
2022-08-03T23:14:19.596Z,3.13
2022-08-03T23:16:48.351Z,3.05
2022-08-03T23:19:25.133Z,3.45
2022-08-03T23:22:03.152Z,3.53
2022-08-03T23:24:38.051Z,3.28
2022-08-03T23:27:07.981Z,2.90
2022-08-03T23:29:42.975Z,3.17
2022-08-03T23:32:11.282Z,2.92
2022-08-03T23:34:58.808Z,3.00
2022-08-03T23:37:26.703Z,2.83
2022-08-03T23:39:57.375Z,2.85
2022-08-03T23:42:25.456Z,3.03
2022-08-03T23:44:56.498Z,2.60
2022-08-03T23:47:46.399Z,2.90
2022-08-03T23:50:14.910Z,2.85
2022-08-03T23:53:00.730Z,2.70
2022-08-03T23:56:00.385Z,2.90
2022-08-03T23:58:40.975Z,3.28
